Time;durP1;ratioP1;P1;durP2;ratioP2;P2;SDS_P1;SDS_P2;PMS_P1;PMS_P2;Temp;Humidity;BMP_temperature;BMP_pressure;BME280_temperature;BME280_humidity;BME280_pressure;Samples;Min_cycle;Max_cycle;Signal;HPM_P1;HPM_P2
2023/08/09 00:02:14;;;;;;;9.15;3.88;;;;;;;;;;4966528;28;20031;-60
2023/08/09 00:04:40;;;;;;;6.88;3.13;;;;;;;;;;4965685;28;20066;-59
2023/08/09 00:07:06;;;;;;;9.27;3.72;;;;;;;;;;4971064;28;20042;-61
2023/08/09 00:09:32;;;;;;;7.70;3.75;;;;;;;;;;4972145;28;20038;-61
2023/08/09 00:11:58;;;;;;;6.18;3.10;;;;;;;;;;4972073;28;20034;-61
2023/08/09 00:14:25;;;;;;;7.18;3.40;;;;;;;;;;4967701;28;20398;-60
2023/08/09 00:16:51;;;;;;;6.18;3.38;;;;;;;;;;4963556;28;20058;-60
2023/08/09 00:19:17;;;;;;;5.90;3.13;;;;;;;;;;4963174;28;20038;-60
2023/08/09 00:21:43;;;;;;;7.15;3.33;;;;;;;;;;4966310;28;20046;-61
2023/08/09 00:24:10;;;;;;;8.73;3.55;;;;;;;;;;4969606;28;20038;-59
2023/08/09 00:26:36;;;;;;;7.55;3.85;;;;;;;;;;4968315;28;20034;-60
2023/08/09 00:29:02;;;;;;;12.15;3.70;;;;;;;;;;4967307;28;20415;-60
2023/08/09 00:31:28;;;;;;;10.98;3.90;;;;;;;;;;4962929;28;20073;-60
2023/08/09 00:33:55;;;;;;;5.82;2.92;;;;;;;;;;4967139;28;20046;-60
2023/08/09 00:36:21;;;;;;;5.85;3.38;;;;;;;;;;4968052;28;20069;-60
2023/08/09 00:38:47;;;;;;;6.72;3.45;;;;;;;;;;4968999;28;20038;-61
2023/08/09 00:41:13;;;;;;;10.85;3.78;;;;;;;;;;4971959;28;20388;-60
2023/08/09 00:43:39;;;;;;;7.78;3.22;;;;;;;;;;4970440;28;20050;-59
2023/08/09 00:46:05;;;;;;;6.15;3.25;;;;;;;;;;4971881;28;20038;-59
2023/08/09 00:48:31;;;;;;;6.45;3.20;;;;;;;;;;4971568;28;20047;-61
2023/08/09 00:50:58;;;;;;;5.50;3.15;;;;;;;;;;4968446;28;20053;-60
2023/08/09 00:53:27;;;;;;;5.93;2.78;;;;;;;;;;4969008;28;20057;-59
2023/08/09 00:55:53;;;;;;;5.82;2.90;;;;;;;;;;4966245;28;20042;-61
2023/08/09 00:58:19;;;;;;;6.10;2.90;;;;;;;;;;4968875;28;20050;-60
2023/08/09 01:00:46;;;;;;;4.47;2.70;;;;;;;;;;4970628;28;20030;-60
2023/08/09 01:03:14;;;;;;;3.50;2.33;;;;;;;;;;4965031;28;20042;-59
2023/08/09 01:06:02;;;;;;;6.55;2.40;;;;;;;;;;4974313;28;20058;-60
2023/08/09 01:08:40;;;;;;;4.47;2.45;;;;;;;;;;4928156;28;20506;-60
2023/08/09 01:11:20;;;;;;;3.38;2.20;;;;;;;;;;4968749;28;20398;-60
2023/08/09 01:13:50;;;;;;;4.40;2.10;;;;;;;;;;4967893;28;20038;-60
2023/08/09 01:16:17;;;;;;;3.72;1.98;;;;;;;;;;4967409;28;20047;-60
2023/08/09 01:18:44;;;;;;;2.72;1.85;;;;;;;;;;4969756;28;20057;-60
2023/08/09 01:21:11;;;;;;;3.92;2.05;;;;;;;;;;4973529;28;20038;-60
2023/08/09 01:23:38;;;;;;;4.43;2.15;;;;;;;;;;4969442;28;20031;-60
2023/08/09 01:26:04;;;;;;;4.03;1.90;;;;;;;;;;4972997;28;20046;-60
2023/08/09 01:28:31;;;;;;;3.50;2.25;;;;;;;;;;4967312;28;20042;-61
2023/08/09 01:30:58;;;;;;;2.55;1.88;;;;;;;;;;4968550;28;20050;-61
2023/08/09 01:33:25;;;;;;;3.30;1.63;;;;;;;;;;4969709;28;20045;-59
2023/08/09 01:36:10;;;;;;;3.63;1.88;;;;;;;;;;4970860;28;20078;-61
2023/08/09 01:38:48;;;;;;;2.00;1.77;;;;;;;;;;4969482;28;20046;-61
2023/08/09 01:41:15;;;;;;;2.83;1.77;;;;;;;;;;4973456;28;20050;-59
2023/08/09 01:43:43;;;;;;;2.65;1.70;;;;;;;;;;4972517;28;20043;-60
2023/08/09 01:46:09;;;;;;;4.60;1.65;;;;;;;;;;4956449;28;20038;-60
2023/08/09 01:48:36;;;;;;;2.85;1.70;;;;;;;;;;4968230;28;20105;-60
2023/08/09 01:51:02;;;;;;;1.88;1.65;;;;;;;;;;4964804;28;20054;-60
2023/08/09 01:53:29;;;;;;;1.90;1.58;;;;;;;;;;4967070;28;20061;-60
2023/08/09 01:55:56;;;;;;;5.45;1.55;;;;;;;;;;4967461;28;20051;-60
2023/08/09 01:58:22;;;;;;;3.15;1.85;;;;;;;;;;4969741;28;20063;-60
2023/08/09 02:00:48;;;;;;;2.40;1.73;;;;;;;;;;4972932;28;20658;-60
2023/08/09 02:03:14;;;;;;;4.07;1.90;;;;;;;;;;4971673;28;20030;-60
2023/08/09 02:05:41;;;;;;;5.28;2.05;;;;;;;;;;4968494;28;20053;-60
2023/08/09 02:08:07;;;;;;;3.65;1.85;;;;;;;;;;4962457;28;20046;-60
2023/08/09 02:10:33;;;;;;;3.88;1.88;;;;;;;;;;4966815;28;20050;-60
2023/08/09 02:12:59;;;;;;;2.83;1.90;;;;;;;;;;4959011;28;20054;-60
2023/08/09 02:15:25;;;;;;;6.10;2.00;;;;;;;;;;4966705;28;20039;-62
2023/08/09 02:17:51;;;;;;;3.45;1.73;;;;;;;;;;4973809;28;20410;-59
2023/08/09 02:20:21;;;;;;;3.50;2.10;;;;;;;;;;4971880;28;20047;-59
2023/08/09 02:22:48;;;;;;;3.97;1.80;;;;;;;;;;4968647;28;20057;-59
2023/08/09 02:25:15;;;;;;;7.97;2.20;;;;;;;;;;4969247;28;20494;-61
2023/08/09 02:27:41;;;;;;;5.72;2.10;;;;;;;;;;4971225;28;20034;-60
2023/08/09 02:30:08;;;;;;;3.17;2.22;;;;;;;;;;4968964;28;20053;-61
2023/08/09 02:32:36;;;;;;;2.88;2.00;;;;;;;;;;4967924;28;20406;-61
2023/08/09 02:35:03;;;;;;;4.20;2.35;;;;;;;;;;4968292;28;20082;-61
2023/08/09 02:37:29;;;;;;;6.35;2.40;;;;;;;;;;4968495;28;20035;-61
2023/08/09 02:39:56;;;;;;;3.15;2.22;;;;;;;;;;4964050;28;20515;-61
2023/08/09 02:42:23;;;;;;;4.75;2.30;;;;;;;;;;4963378;28;20049;-59
2023/08/09 02:44:49;;;;;;;3.72;2.30;;;;;;;;;;4972052;28;20049;-60
2023/08/09 02:47:15;;;;;;;2.95;2.30;;;;;;;;;;4965434;28;20035;-59
2023/08/09 02:49:41;;;;;;;3.38;2.15;;;;;;;;;;4967208;28;20380;-61
2023/08/09 02:52:07;;;;;;;4.18;2.75;;;;;;;;;;4961340;28;20038;-59
2023/08/09 02:54:33;;;;;;;3.22;2.30;;;;;;;;;;4967136;28;20434;-60
2023/08/09 02:56:59;;;;;;;6.05;2.33;;;;;;;;;;4967954;28;20043;-60
2023/08/09 02:59:26;;;;;;;7.20;2.42;;;;;;;;;;4965929;28;20059;-60
2023/08/09 03:01:52;;;;;;;3.78;2.63;;;;;;;;;;4964583;28;20057;-60
2023/08/09 03:04:18;;;;;;;5.32;2.47;;;;;;;;;;4967404;28;20407;-59
2023/08/09 03:06:44;;;;;;;4.32;2.90;;;;;;;;;;4963249;28;20530;-60
2023/08/09 03:09:10;;;;;;;6.68;3.25;;;;;;;;;;4974077;28;20437;-61
2023/08/09 03:11:37;;;;;;;5.55;3.00;;;;;;;;;;4973059;28;20039;-61
2023/08/09 03:14:03;;;;;;;5.15;2.83;;;;;;;;;;4965711;28;20054;-60
2023/08/09 03:16:29;;;;;;;4.80;2.40;;;;;;;;;;4960615;28;20042;-61
2023/08/09 03:18:56;;;;;;;3.75;2.55;;;;;;;;;;4968821;28;20059;-61
2023/08/09 03:21:23;;;;;;;7.20;2.70;;;;;;;;;;4948945;28;20039;-61
2023/08/09 03:23:49;;;;;;;4.03;2.50;;;;;;;;;;4962984;28;20503;-61
2023/08/09 03:26:15;;;;;;;6.10;2.70;;;;;;;;;;4952486;28;20034;-61
2023/08/09 03:28:45;;;;;;;4.30;2.70;;;;;;;;;;4966820;28;20046;-60
2023/08/09 03:31:13;;;;;;;6.22;2.80;;;;;;;;;;4969262;28;20050;-61
2023/08/09 03:33:39;;;;;;;4.60;2.75;;;;;;;;;;4961180;28;20073;-61
2023/08/09 03:36:06;;;;;;;6.72;2.90;;;;;;;;;;4969432;28;20049;-60
2023/08/09 03:38:33;;;;;;;5.20;2.70;;;;;;;;;;4965439;28;20042;-61
2023/08/09 03:40:59;;;;;;;5.90;2.72;;;;;;;;;;4960030;28;20407;-61
2023/08/09 03:43:25;;;;;;;6.70;2.83;;;;;;;;;;4965749;28;20034;-60
2023/08/09 03:45:51;;;;;;;6.72;2.83;;;;;;;;;;4966101;28;20054;-60
2023/08/09 03:48:19;;;;;;;8.00;3.80;;;;;;;;;;4964965;28;20030;-61
2023/08/09 03:50:45;;;;;;;8.80;3.90;;;;;;;;;;4963845;28;20066;-60
2023/08/09 03:53:12;;;;;;;3.70;2.55;;;;;;;;;;4959936;28;20042;-61
2023/08/09 03:55:42;;;;;;;5.28;3.08;;;;;;;;;;4961146;28;20045;-59
2023/08/09 03:58:08;;;;;;;4.85;3.00;;;;;;;;;;4960671;28;20061;-59
2023/08/09 04:00:34;;;;;;;4.63;2.70;;;;;;;;;;4965882;28;20046;-59
2023/08/09 04:03:00;;;;;;;6.05;3.17;;;;;;;;;;4963294;28;20050;-59
2023/08/09 04:05:26;;;;;;;5.85;2.90;;;;;;;;;;4965631;28;20051;-61
2023/08/09 04:07:52;;;;;;;5.40;2.67;;;;;;;;;;4968653;28;20030;-61
2023/08/09 04:10:18;;;;;;;5.65;3.47;;;;;;;;;;4967426;28;20066;-61
2023/08/09 04:12:44;;;;;;;6.30;2.90;;;;;;;;;;4968684;28;20118;-60
2023/08/09 04:15:11;;;;;;;5.47;3.30;;;;;;;;;;4971986;28;20042;-61
2023/08/09 04:17:37;;;;;;;10.18;4.38;;;;;;;;;;4964598;28;20037;-60
2023/08/09 04:20:07;;;;;;;4.60;3.00;;;;;;;;;;4970442;28;20043;-61
2023/08/09 04:22:35;;;;;;;4.25;3.00;;;;;;;;;;4970087;28;20475;-61
2023/08/09 04:25:01;;;;;;;6.68;2.95;;;;;;;;;;4973614;28;20034;-61
2023/08/09 04:27:28;;;;;;;5.03;3.10;;;;;;;;;;4970615;28;20037;-61
2023/08/09 04:29:54;;;;;;;5.13;2.80;;;;;;;;;;4981401;28;20050;-61
2023/08/09 04:32:20;;;;;;;6.22;2.90;;;;;;;;;;4971408;28;20426;-61
2023/08/09 04:34:46;;;;;;;4.72;2.58;;;;;;;;;;4974591;28;20047;-61
2023/08/09 04:37:12;;;;;;;5.03;2.70;;;;;;;;;;4972506;28;20046;-61
2023/08/09 04:39:38;;;;;;;6.78;2.70;;;;;;;;;;4972296;28;20047;-61
2023/08/09 04:42:04;;;;;;;5.40;2.63;;;;;;;;;;4974968;28;20042;-60
2023/08/09 04:44:31;;;;;;;4.47;2.55;;;;;;;;;;4968889;28;20406;-60
2023/08/09 04:46:58;;;;;;;6.22;2.90;;;;;;;;;;4971379;28;20038;-61
2023/08/09 04:49:25;;;;;;;5.70;2.63;;;;;;;;;;4969862;28;20507;-60
2023/08/09 04:51:51;;;;;;;4.65;3.00;;;;;;;;;;4972788;28;20051;-60
2023/08/09 04:54:17;;;;;;;8.73;2.90;;;;;;;;;;4973529;28;20038;-60
2023/08/09 04:56:43;;;;;;;4.10;2.63;;;;;;;;;;4971309;28;20043;-61
2023/08/09 04:59:09;;;;;;;5.95;2.65;;;;;;;;;;4969372;28;20043;-61
2023/08/09 05:01:35;;;;;;;3.92;2.50;;;;;;;;;;4971912;28;20046;-60
2023/08/09 05:04:01;;;;;;;4.32;2.47;;;;;;;;;;4969907;28;20402;-60
2023/08/09 05:06:28;;;;;;;7.60;2.45;;;;;;;;;;4971035;28;20037;-60
2023/08/09 05:08:54;;;;;;;4.13;2.70;;;;;;;;;;4974588;28;20043;-60
2023/08/09 05:11:20;;;;;;;3.83;2.75;;;;;;;;;;4974148;28;20541;-60
2023/08/09 05:13:46;;;;;;;5.20;2.60;;;;;;;;;;4968757;28;20051;-60
2023/08/09 05:16:12;;;;;;;5.85;2.70;;;;;;;;;;4971849;28;20046;-60
2023/08/09 05:18:39;;;;;;;4.68;2.40;;;;;;;;;;4971710;28;20039;-61
2023/08/09 05:21:05;;;;;;;5.63;2.60;;;;;;;;;;4970036;28;20507;-61
2023/08/09 05:23:31;;;;;;;4.78;2.45;;;;;;;;;;4969510;28;20042;-61
2023/08/09 05:25:58;;;;;;;3.97;2.20;;;;;;;;;;4972106;28;20042;-61
2023/08/09 05:28:25;;;;;;;4.22;2.45;;;;;;;;;;4969951;28;20522;-60
2023/08/09 05:30:51;;;;;;;5.45;2.80;;;;;;;;;;4970755;28;20038;-62
2023/08/09 05:33:17;;;;;;;4.88;2.70;;;;;;;;;;4971048;28;20034;-61
2023/08/09 05:35:43;;;;;;;5.45;2.47;;;;;;;;;;4969783;28;20038;-60
2023/08/09 05:38:10;;;;;;;4.38;2.92;;;;;;;;;;4971654;28;20050;-60
2023/08/09 05:40:36;;;;;;;5.53;2.63;;;;;;;;;;4971443;28;20618;-60
2023/08/09 05:43:02;;;;;;;5.88;3.30;;;;;;;;;;4972035;28;20051;-61
2023/08/09 05:45:28;;;;;;;4.80;2.92;;;;;;;;;;4966011;28;20034;-60
2023/08/09 05:47:54;;;;;;;10.60;2.70;;;;;;;;;;4968428;28;20038;-60
2023/08/09 05:50:20;;;;;;;4.53;2.33;;;;;;;;;;4971510;28;20533;-60
2023/08/09 05:52:46;;;;;;;5.00;2.75;;;;;;;;;;4968922;28;20054;-60
2023/08/09 05:55:12;;;;;;;6.45;3.00;;;;;;;;;;4968377;28;20030;-60
2023/08/09 05:57:39;;;;;;;7.82;2.50;;;;;;;;;;4967352;28;20092;-59
2023/08/09 06:00:11;;;;;;;3.75;2.20;;;;;;;;;;4968895;28;20050;-60
2023/08/09 06:02:37;;;;;;;6.38;2.10;;;;;;;;;;4966791;28;20057;-60
2023/08/09 06:05:03;;;;;;;5.43;2.63;;;;;;;;;;4967327;28;20506;-60
2023/08/09 06:07:29;;;;;;;7.85;2.38;;;;;;;;;;4968336;28;20022;-60
2023/08/09 06:09:55;;;;;;;5.35;2.53;;;;;;;;;;4972520;28;20427;-60
2023/08/09 06:12:22;;;;;;;4.63;2.40;;;;;;;;;;4966553;28;20053;-59
2023/08/09 06:14:48;;;;;;;5.68;2.58;;;;;;;;;;4969994;28;20042;-60
2023/08/09 06:17:14;;;;;;;5.05;2.45;;;;;;;;;;4971623;28;20057;-60
2023/08/09 06:19:40;;;;;;;5.93;2.40;;;;;;;;;;4968863;28;20681;-60
2023/08/09 06:22:06;;;;;;;3.47;2.28;;;;;;;;;;4970095;28;20803;-59
2023/08/09 06:24:32;;;;;;;7.82;2.42;;;;;;;;;;4968535;28;20550;-60
2023/08/09 06:26:58;;;;;;;5.13;2.38;;;;;;;;;;4973246;28;20051;-60
2023/08/09 06:29:24;;;;;;;10.02;2.50;;;;;;;;;;4969508;28;20045;-59
2023/08/09 06:31:50;;;;;;;5.20;2.30;;;;;;;;;;4969705;28;20391;-60
2023/08/09 06:34:17;;;;;;;3.25;2.20;;;;;;;;;;4968220;28;20430;-59
2023/08/09 06:36:43;;;;;;;3.30;2.17;;;;;;;;;;4965739;28;20058;-59
2023/08/09 06:39:09;;;;;;;4.03;2.20;;;;;;;;;;4968380;28;20027;-59
2023/08/09 06:41:35;;;;;;;5.25;2.10;;;;;;;;;;4968526;28;20046;-59
2023/08/09 06:44:02;;;;;;;6.35;2.30;;;;;;;;;;4970222;28;20533;-59
2023/08/09 06:46:28;;;;;;;9.18;2.83;;;;;;;;;;4967497;28;20049;-61
2023/08/09 06:48:54;;;;;;;4.85;2.25;;;;;;;;;;4967222;28;20041;-59
2023/08/09 06:51:21;;;;;;;4.97;2.55;;;;;;;;;;4967096;28;20051;-60
2023/08/09 06:53:47;;;;;;;5.45;2.15;;;;;;;;;;4966942;28;20037;-59
2023/08/09 06:56:13;;;;;;;3.83;1.85;;;;;;;;;;4967790;28;20041;-60
2023/08/09 06:58:39;;;;;;;4.72;2.03;;;;;;;;;;4965823;28;20051;-61
2023/08/09 07:01:09;;;;;;;7.57;2.47;;;;;;;;;;4968897;28;20039;-60
2023/08/09 07:03:36;;;;;;;3.33;2.10;;;;;;;;;;4969495;28;20047;-59
2023/08/09 07:06:03;;;;;;;2.60;2.08;;;;;;;;;;4972045;28;20115;-59
2023/08/09 07:08:29;;;;;;;4.28;2.30;;;;;;;;;;4972995;28;20039;-61
2023/08/09 07:10:56;;;;;;;3.35;2.20;;;;;;;;;;4970469;28;20047;-60
2023/08/09 07:13:22;;;;;;;4.03;2.30;;;;;;;;;;4969213;28;20035;-60
2023/08/09 07:15:48;;;;;;;3.38;1.85;;;;;;;;;;4965560;28;20054;-60
2023/08/09 07:18:14;;;;;;;5.13;1.85;;;;;;;;;;4968590;28;20049;-60
2023/08/09 07:20:40;;;;;;;3.83;1.95;;;;;;;;;;4968799;28;20045;-60
2023/08/09 07:23:06;;;;;;;4.70;2.10;;;;;;;;;;4966740;28;20403;-60
2023/08/09 07:25:32;;;;;;;3.65;2.05;;;;;;;;;;4965006;28;20053;-60
2023/08/09 07:27:58;;;;;;;2.92;1.77;;;;;;;;;;4969776;28;20046;-61
2023/08/09 07:30:24;;;;;;;3.63;2.03;;;;;;;;;;4963648;28;20422;-60
2023/08/09 07:32:50;;;;;;;2.38;1.73;;;;;;;;;;4967360;28;20046;-60
2023/08/09 07:35:17;;;;;;;2.97;2.10;;;;;;;;;;4967034;28;20103;-61
2023/08/09 07:37:46;;;;;;;4.18;2.03;;;;;;;;;;4967796;28;20944;-60
2023/08/09 07:40:13;;;;;;;2.72;2.05;;;;;;;;;;4966689;28;20403;-59
2023/08/09 07:42:40;;;;;;;5.78;2.05;;;;;;;;;;4970545;28;20046;-60
2023/08/09 07:45:07;;;;;;;3.53;2.10;;;;;;;;;;4971680;28;20532;-60
2023/08/09 07:47:33;;;;;;;5.20;1.80;;;;;;;;;;4968312;28;20043;-61
2023/08/09 07:49:59;;;;;;;6.22;2.25;;;;;;;;;;4968526;28;20055;-61
2023/08/09 07:52:26;;;;;;;3.38;2.05;;;;;;;;;;4965884;28;20030;-60
2023/08/09 07:54:52;;;;;;;6.07;2.00;;;;;;;;;;4966420;28;20062;-61
2023/08/09 07:57:18;;;;;;;3.83;1.95;;;;;;;;;;4967376;28;20038;-60
2023/08/09 07:59:44;;;;;;;3.47;1.85;;;;;;;;;;4969627;28;20529;-61
2023/08/09 08:02:11;;;;;;;3.00;1.67;;;;;;;;;;4972559;28;20043;-60
2023/08/09 08:04:37;;;;;;;4.05;1.98;;;;;;;;;;4969907;28;20046;-60
2023/08/09 08:07:03;;;;;;;3.72;2.10;;;;;;;;;;4975044;28;20046;-60
2023/08/09 08:09:32;;;;;;;6.05;2.15;;;;;;;;;;4967273;28;20031;-60
2023/08/09 08:11:59;;;;;;;3.63;2.00;;;;;;;;;;4968991;28;20051;-60
2023/08/09 08:14:25;;;;;;;3.13;2.10;;;;;;;;;;4964934;28;20042;-60
2023/08/09 08:16:51;;;;;;;4.60;2.95;;;;;;;;;;4967473;28;20395;-60
2023/08/09 08:19:17;;;;;;;3.47;2.20;;;;;;;;;;4970291;28;20022;-60
2023/08/09 08:21:43;;;;;;;4.07;2.25;;;;;;;;;;4966889;28;20047;-60
2023/08/09 08:24:11;;;;;;;4.53;2.03;;;;;;;;;;4963304;28;20035;-60
2023/08/09 08:26:38;;;;;;;4.20;1.92;;;;;;;;;;4967167;28;20054;-60
2023/08/09 08:29:04;;;;;;;2.75;2.13;;;;;;;;;;4967484;28;20034;-60
2023/08/09 08:31:30;;;;;;;4.82;2.13;;;;;;;;;;4965148;28;20039;-60
2023/08/09 08:33:56;;;;;;;3.60;2.08;;;;;;;;;;4976300;28;20034;-60
2023/08/09 08:36:22;;;;;;;3.55;2.10;;;;;;;;;;4969147;28;20034;-60
2023/08/09 08:38:50;;;;;;;3.58;2.10;;;;;;;;;;4970479;28;20050;-59
2023/08/09 08:41:16;;;;;;;3.80;2.22;;;;;;;;;;4966884;28;20038;-59
2023/08/09 08:43:44;;;;;;;2.55;1.83;;;;;;;;;;4965538;28;20042;-60
2023/08/09 08:46:14;;;;;;;4.72;2.13;;;;;;;;;;4966474;28;20053;-60
2023/08/09 08:48:45;;;;;;;4.82;2.45;;;;;;;;;;4965224;28;20046;-60
2023/08/09 08:51:12;;;;;;;5.32;2.50;;;;;;;;;;4959893;28;20030;-60
2023/08/09 08:53:40;;;;;;;4.82;2.17;;;;;;;;;;4962670;28;20047;-61
2023/08/09 08:56:06;;;;;;;3.25;1.98;;;;;;;;;;4963934;28;20046;-60
2023/08/09 08:58:33;;;;;;;4.53;2.10;;;;;;;;;;4957373;28;20065;-60
2023/08/09 09:01:00;;;;;;;5.05;2.10;;;;;;;;;;4962668;28;20034;-60
2023/08/09 09:03:26;;;;;;;4.05;2.15;;;;;;;;;;4967422;28;20524;-60
2023/08/09 09:05:52;;;;;;;3.58;2.45;;;;;;;;;;4970247;28;20030;-60
2023/08/09 09:08:19;;;;;;;7.10;2.40;;;;;;;;;;4965823;28;20038;-60
2023/08/09 09:10:45;;;;;;;4.88;2.80;;;;;;;;;;4963114;28;20042;-61
2023/08/09 09:13:25;;;;;;;8.93;3.28;;;;;;;;;;4966557;28;20027;-61
2023/08/09 09:15:53;;;;;;;3.38;2.13;;;;;;;;;;4963585;28;20403;-61
2023/08/09 09:18:21;;;;;;;5.70;3.25;;;;;;;;;;4971855;28;20061;-60
2023/08/09 09:20:47;;;;;;;7.93;2.40;;;;;;;;;;4973401;28;20042;-61
2023/08/09 09:23:30;;;;;;;4.03;2.13;;;;;;;;;;4971352;28;20050;-59
2023/08/09 09:26:02;;;;;;;5.60;2.35;;;;;;;;;;4975056;28;20053;-59
2023/08/09 09:28:29;;;;;;;4.53;2.10;;;;;;;;;;4966827;28;20038;-60
2023/08/09 09:30:58;;;;;;;3.20;2.00;;;;;;;;;;4967317;28;20043;-60
2023/08/09 09:33:35;;;;;;;4.85;2.60;;;;;;;;;;4969168;28;20046;-60
2023/08/09 09:36:02;;;;;;;5.75;2.30;;;;;;;;;;4966464;28;20038;-59
2023/08/09 09:38:28;;;;;;;6.68;2.28;;;;;;;;;;4965886;28;20038;-59
2023/08/09 09:40:56;;;;;;;3.42;2.20;;;;;;;;;;4967268;28;20046;-60
2023/08/09 09:43:24;;;;;;;3.50;2.08;;;;;;;;;;4967794;28;20059;-60
2023/08/09 09:45:56;;;;;;;4.65;2.08;;;;;;;;;;4968973;28;20059;-59
2023/08/09 09:48:23;;;;;;;4.82;2.25;;;;;;;;;;4966076;28;20046;-60
2023/08/09 09:50:49;;;;;;;5.25;2.40;;;;;;;;;;4967341;28;20047;-59
2023/08/09 09:53:18;;;;;;;6.57;2.28;;;;;;;;;;4965880;28;20123;-60
2023/08/09 09:55:53;;;;;;;4.82;2.10;;;;;;;;;;4961409;28;20042;-60
2023/08/09 09:58:19;;;;;;;4.57;2.10;;;;;;;;;;4968160;28;20047;-60
2023/08/09 10:00:52;;;;;;;3.33;2.20;;;;;;;;;;4964287;28;20069;-61
2023/08/09 10:03:23;;;;;;;4.28;2.30;;;;;;;;;;4969989;28;20038;-60
2023/08/09 10:05:49;;;;;;;5.07;2.20;;;;;;;;;;4969275;28;20392;-61
2023/08/09 10:08:17;;;;;;;3.60;2.10;;;;;;;;;;4966292;28;20037;-60
2023/08/09 10:10:47;;;;;;;3.63;2.30;;;;;;;;;;4965462;28;20051;-60
2023/08/09 10:13:17;;;;;;;;;;;;;;;;;;4966886;28;20034;-60
2023/08/09 10:15:47;;;;;;;5.53;2.30;;;;;;;;;;4966126;28;19914;-60
2023/08/09 10:18:34;;;;;;;5.78;2.20;;;;;;;;;;4968415;28;20047;-60
2023/08/09 10:21:02;;;;;;;4.20;1.92;;;;;;;;;;4971513;28;20038;-61
2023/08/09 10:23:29;;;;;;;2.53;2.05;;;;;;;;;;4969863;28;20034;-61
2023/08/09 10:25:56;;;;;;;3.00;2.00;;;;;;;;;;4978008;28;20035;-61
2023/08/09 10:28:49;;;;;;;4.50;2.35;;;;;;;;;;4971926;28;20395;-61
2023/08/09 10:31:55;;;;;;;3.17;2.00;;;;;;;;;;4956504;28;20411;-60
2023/08/09 10:34:40;;;;;;;5.97;2.33;;;;;;;;;;4965906;28;20037;-59
2023/08/09 10:37:07;;;;;;;4.90;2.38;;;;;;;;;;4968451;28;20073;-58
2023/08/09 10:39:34;;;;;;;3.67;2.20;;;;;;;;;;4969403;28;20832;-59
2023/08/09 10:42:08;;;;;;;4.55;2.35;;;;;;;;;;4966839;28;20430;-59
2023/08/09 10:44:37;;;;;;;3.15;2.22;;;;;;;;;;4969822;28;20034;-59
2023/08/09 10:47:10;;;;;;;2.78;2.15;;;;;;;;;;4968095;28;20027;-59
2023/08/09 10:49:59;;;;;;;6.18;2.20;;;;;;;;;;4966259;28;20043;-59
2023/08/09 10:52:32;;;;;;;2.78;2.10;;;;;;;;;;4970754;28;20050;-59
2023/08/09 10:55:26;;;;;;;4.60;2.70;;;;;;;;;;4967678;28;20046;-59
2023/08/09 10:57:54;;;;;;;4.13;2.60;;;;;;;;;;4965958;28;20055;-59
2023/08/09 11:00:23;;;;;;;4.30;2.33;;;;;;;;;;4967104;28;20054;-59
2023/08/09 11:02:51;;;;;;;4.60;2.38;;;;;;;;;;4967557;28;20058;-59
2023/08/09 11:05:18;;;;;;;6.20;2.78;;;;;;;;;;4967999;28;20043;-60
2023/08/09 11:07:50;;;;;;;4.88;2.50;;;;;;;;;;4966901;28;20042;-59
2023/08/09 11:10:31;;;;;;;8.02;2.90;;;;;;;;;;4971478;28;20498;-59
2023/08/09 11:13:05;;;;;;;6.25;2.45;;;;;;;;;;4967791;28;20050;-61
2023/08/09 11:15:32;;;;;;;5.72;2.17;;;;;;;;;;4966863;28;20407;-61
2023/08/09 11:17:58;;;;;;;4.93;2.33;;;;;;;;;;4975145;28;20065;-60
2023/08/09 11:20:24;;;;;;;4.95;2.28;;;;;;;;;;4970538;28;20023;-60
2023/08/09 11:22:55;;;;;;;7.45;2.60;;;;;;;;;;4968852;28;20042;-60
2023/08/09 11:25:23;;;;;;;7.80;2.67;;;;;;;;;;4968665;28;20390;-60
2023/08/09 11:27:53;;;;;;;4.80;2.45;;;;;;;;;;4973159;28;20039;-60
2023/08/09 11:30:20;;;;;;;4.50;2.60;;;;;;;;;;4970874;28;20411;-60
2023/08/09 11:33:12;;;;;;;4.78;2.30;;;;;;;;;;4966445;28;20026;-61
2023/08/09 11:35:43;;;;;;;6.78;2.60;;;;;;;;;;4964077;28;20059;-59
2023/08/09 11:38:12;;;;;;;6.13;2.63;;;;;;;;;;4965549;28;20043;-60
2023/08/09 11:40:48;;;;;;;4.00;2.13;;;;;;;;;;4966150;28;20110;-60
2023/08/09 11:43:16;;;;;;;4.20;1.85;;;;;;;;;;4962346;28;20057;-60
2023/08/09 11:45:53;;;;;;;3.15;2.22;;;;;;;;;;4961620;28;20046;-60
2023/08/09 11:48:32;;;;;;;5.43;2.13;;;;;;;;;;4965239;28;20050;-60
2023/08/09 11:51:01;;;;;;;5.53;2.33;;;;;;;;;;4964985;28;20030;-60
2023/08/09 11:53:27;;;;;;;5.93;2.40;;;;;;;;;;4964222;28;20035;-60
2023/08/09 11:56:01;;;;;;;3.65;2.30;;;;;;;;;;4966615;28;20043;-60
2023/08/09 11:58:27;;;;;;;5.88;2.78;;;;;;;;;;4964757;28;20077;-59
2023/08/09 12:00:53;;;;;;;4.97;2.00;;;;;;;;;;4966160;28;20038;-60
2023/08/09 12:03:21;;;;;;;5.22;2.30;;;;;;;;;;4964538;28;20665;-59
2023/08/09 12:05:47;;;;;;;4.55;2.42;;;;;;;;;;4970212;28;20038;-60
2023/08/09 12:08:13;;;;;;;5.97;2.90;;;;;;;;;;4968445;28;20043;-60
2023/08/09 12:10:42;;;;;;;6.18;2.08;;;;;;;;;;4966946;28;20066;-61
2023/08/09 12:13:09;;;;;;;6.03;2.25;;;;;;;;;;4970530;28;20038;-60
2023/08/09 12:15:35;;;;;;;3.50;2.17;;;;;;;;;;4968022;28;20031;-60
2023/08/09 12:18:02;;;;;;;3.78;2.33;;;;;;;;;;4966913;28;20054;-60
2023/08/09 12:20:28;;;;;;;3.63;1.98;;;;;;;;;;4965739;28;20042;-59
2023/08/09 12:22:54;;;;;;;2.85;1.90;;;;;;;;;;4969270;28;20038;-58
2023/08/09 12:25:20;;;;;;;5.60;2.33;;;;;;;;;;4969577;28;20053;-61
2023/08/09 12:27:46;;;;;;;4.35;2.10;;;;;;;;;;4975526;28;20047;-61
2023/08/09 12:30:14;;;;;;;3.72;2.70;;;;;;;;;;4968253;28;20026;-60
2023/08/09 12:32:40;;;;;;;4.57;2.67;;;;;;;;;;4970608;28;20061;-59
2023/08/09 12:35:07;;;;;;;4.00;2.00;;;;;;;;;;4974141;28;20588;-60
2023/08/09 12:37:33;;;;;;;4.15;2.50;;;;;;;;;;4970101;28;20055;-59
2023/08/09 12:39:59;;;;;;;3.90;2.10;;;;;;;;;;4958226;28;20041;-60
2023/08/09 12:42:25;;;;;;;3.92;2.00;;;;;;;;;;4972168;28;20031;-60
2023/08/09 12:44:51;;;;;;;2.47;2.15;;;;;;;;;;4973735;28;20046;-59
2023/08/09 12:47:17;;;;;;;3.70;2.35;;;;;;;;;;4972743;28;20046;-60
2023/08/09 12:49:43;;;;;;;5.65;2.80;;;;;;;;;;4972956;28;20054;-60
2023/08/09 12:52:09;;;;;;;3.00;2.15;;;;;;;;;;4969647;28;20573;-60
2023/08/09 12:54:35;;;;;;;3.95;2.20;;;;;;;;;;4967819;28;20525;-59
2023/08/09 12:57:02;;;;;;;3.08;2.08;;;;;;;;;;4972037;28;20058;-60
2023/08/09 12:59:28;;;;;;;2.92;2.15;;;;;;;;;;4970726;28;20050;-59
2023/08/09 13:01:54;;;;;;;6.13;2.10;;;;;;;;;;4969493;28;20039;-59
2023/08/09 13:04:23;;;;;;;2.53;1.90;;;;;;;;;;4968427;28;20944;-60
2023/08/09 13:06:53;;;;;;;2.35;1.77;;;;;;;;;;4968448;28;20505;-60
2023/08/09 13:09:19;;;;;;;3.47;2.17;;;;;;;;;;4970458;28;20038;-60
2023/08/09 13:11:46;;;;;;;3.25;2.13;;;;;;;;;;4969666;28;20502;-60
2023/08/09 13:14:13;;;;;;;3.38;2.40;;;;;;;;;;4969433;28;20053;-59
2023/08/09 13:16:39;;;;;;;4.80;2.05;;;;;;;;;;4968343;28;20703;-60
2023/08/09 13:19:05;;;;;;;4.43;2.10;;;;;;;;;;4970348;28;20046;-59
2023/08/09 13:21:31;;;;;;;3.97;2.03;;;;;;;;;;4969935;28;20050;-59
2023/08/09 13:23:57;;;;;;;3.45;2.13;;;;;;;;;;4969026;28;20038;-60
2023/08/09 13:26:25;;;;;;;2.47;1.92;;;;;;;;;;4967899;28;20047;-60
2023/08/09 13:28:51;;;;;;;3.55;2.15;;;;;;;;;;4971739;28;20065;-60
2023/08/09 13:31:17;;;;;;;3.30;1.77;;;;;;;;;;4975390;28;20414;-60
2023/08/09 13:33:43;;;;;;;5.63;2.13;;;;;;;;;;4966438;28;20516;-60
2023/08/09 13:36:09;;;;;;;4.13;2.00;;;;;;;;;;4969986;28;20068;-60
2023/08/09 13:38:40;;;;;;;2.85;2.08;;;;;;;;;;4967235;28;20388;-60
2023/08/09 13:41:07;;;;;;;3.83;1.85;;;;;;;;;;4971148;28;20055;-60
2023/08/09 13:43:34;;;;;;;3.45;2.13;;;;;;;;;;4965815;28;20042;-59
2023/08/09 13:46:00;;;;;;;3.90;2.00;;;;;;;;;;4968485;28;20058;-60
2023/08/09 13:48:26;;;;;;;3.75;2.10;;;;;;;;;;4965910;28;20046;-60
2023/08/09 13:50:52;;;;;;;3.75;2.00;;;;;;;;;;4972754;28;20065;-60
2023/08/09 13:53:18;;;;;;;2.38;1.88;;;;;;;;;;4971640;28;20049;-59
2023/08/09 13:55:45;;;;;;;4.90;2.30;;;;;;;;;;4965770;28;20035;-60
2023/08/09 13:58:13;;;;;;;4.22;1.95;;;;;;;;;;4967336;28;20084;-59
2023/08/09 14:00:39;;;;;;;2.20;2.00;;;;;;;;;;4967929;28;20743;-60
2023/08/09 14:03:07;;;;;;;6.63;4.30;;;;;;;;;;4969563;28;20034;-59
2023/08/09 14:05:34;;;;;;;6.03;3.83;;;;;;;;;;4966608;28;20034;-60
2023/08/09 14:08:01;;;;;;;4.93;2.63;;;;;;;;;;4971177;28;20182;-60
2023/08/09 14:10:27;;;;;;;3.45;2.15;;;;;;;;;;4967862;28;20047;-60
2023/08/09 14:12:55;;;;;;;4.60;1.85;;;;;;;;;;4968694;28;20414;-59
2023/08/09 14:15:21;;;;;;;3.63;2.28;;;;;;;;;;4969570;28;20047;-59
2023/08/09 14:17:47;;;;;;;4.32;2.55;;;;;;;;;;4969350;28;20041;-59
2023/08/09 14:20:16;;;;;;;3.38;1.80;;;;;;;;;;4977274;28;20037;-59
2023/08/09 14:22:43;;;;;;;4.30;2.17;;;;;;;;;;4968329;28;20055;-59
2023/08/09 14:25:10;;;;;;;2.55;2.10;;;;;;;;;;4972008;28;20041;-59
2023/08/09 14:27:36;;;;;;;2.85;2.15;;;;;;;;;;4967131;28;20041;-59
2023/08/09 14:30:03;;;;;;;2.75;2.17;;;;;;;;;;4970501;28;20542;-60
2023/08/09 14:32:29;;;;;;;2.40;1.90;;;;;;;;;;4967352;28;20034;-60
2023/08/09 14:34:56;;;;;;;4.05;2.20;;;;;;;;;;4974528;28;20027;-61
2023/08/09 14:37:22;;;;;;;3.72;2.13;;;;;;;;;;4969058;28;20541;-60
2023/08/09 14:39:48;;;;;;;3.80;2.15;;;;;;;;;;4971527;28;20035;-61
2023/08/09 14:42:14;;;;;;;3.38;2.20;;;;;;;;;;4965340;28;20450;-60
2023/08/09 14:44:41;;;;;;;2.88;2.00;;;;;;;;;;4964430;28;20052;-60
2023/08/09 14:47:08;;;;;;;4.00;2.15;;;;;;;;;;4963913;28;20058;-59